sensor_id;sensor_type;location;lat;lon;timestamp;temperature;humidity
20654;DHT22;21083;50.898;4.902;2023-05-29T00:00:36;18.10;99.90
20654;DHT22;21083;50.898;4.902;2023-05-29T00:03:03;18.10;99.90
20654;DHT22;21083;50.898;4.902;2023-05-29T00:05:30;18.10;99.90
20654;DHT22;21083;50.898;4.902;2023-05-29T00:07:57;18.00;99.90
20654;DHT22;21083;50.898;4.902;2023-05-29T00:10:25;18.00;99.90
20654;DHT22;21083;50.898;4.902;2023-05-29T00:12:52;18.10;99.90
20654;DHT22;21083;50.898;4.902;2023-05-29T00:15:21;17.90;99.90
20654;DHT22;21083;50.898;4.902;2023-05-29T00:17:48;17.90;99.90
20654;DHT22;21083;50.898;4.902;2023-05-29T00:20:16;17.80;99.90
20654;DHT22;21083;50.898;4.902;2023-05-29T00:22:43;17.70;99.90
20654;DHT22;21083;50.898;4.902;2023-05-29T00:25:10;17.60;99.90
20654;DHT22;21083;50.898;4.902;2023-05-29T00:27:38;17.60;99.90
20654;DHT22;21083;50.898;4.902;2023-05-29T00:30:07;17.50;99.90
20654;DHT22;21083;50.898;4.902;2023-05-29T00:32:35;17.50;99.90
20654;DHT22;21083;50.898;4.902;2023-05-29T00:35:02;17.50;99.90
20654;DHT22;21083;50.898;4.902;2023-05-29T00:37:29;17.50;99.90
20654;DHT22;21083;50.898;4.902;2023-05-29T00:39:56;17.40;99.90
20654;DHT22;21083;50.898;4.902;2023-05-29T00:42:24;17.40;99.90
20654;DHT22;21083;50.898;4.902;2023-05-29T00:44:52;17.30;99.90
20654;DHT22;21083;50.898;4.902;2023-05-29T00:47:19;17.40;99.90
20654;DHT22;21083;50.898;4.902;2023-05-29T00:49:46;17.30;99.90
20654;DHT22;21083;50.898;4.902;2023-05-29T00:52:14;17.10;99.90
20654;DHT22;21083;50.898;4.902;2023-05-29T00:54:43;17.00;99.90
20654;DHT22;21083;50.898;4.902;2023-05-29T00:57:12;17.00;99.90
20654;DHT22;21083;50.898;4.902;2023-05-29T00:59:39;17.10;99.90
20654;DHT22;21083;50.898;4.902;2023-05-29T01:02:09;17.10;99.90
20654;DHT22;21083;50.898;4.902;2023-05-29T01:04:36;17.10;99.90
20654;DHT22;21083;50.898;4.902;2023-05-29T01:07:04;17.20;99.90
20654;DHT22;21083;50.898;4.902;2023-05-29T01:09:32;17.10;99.90
20654;DHT22;21083;50.898;4.902;2023-05-29T01:12:14;16.90;99.90
20654;DHT22;21083;50.898;4.902;2023-05-29T01:14:50;16.80;99.90
20654;DHT22;21083;50.898;4.902;2023-05-29T01:17:28;16.80;99.90
20654;DHT22;21083;50.898;4.902;2023-05-29T01:20:23;16.70;99.90
20654;DHT22;21083;50.898;4.902;2023-05-29T01:23:07;16.70;99.90
20654;DHT22;21083;50.898;4.902;2023-05-29T01:25:46;16.50;99.90
20654;DHT22;21083;50.898;4.902;2023-05-29T01:28:21;16.50;99.90
20654;DHT22;21083;50.898;4.902;2023-05-29T01:30:53;16.50;99.90
20654;DHT22;21083;50.898;4.902;2023-05-29T01:33:20;16.60;99.90
20654;DHT22;21083;50.898;4.902;2023-05-29T01:35:47;16.50;99.90
20654;DHT22;21083;50.898;4.902;2023-05-29T01:38:14;16.50;99.90
20654;DHT22;21083;50.898;4.902;2023-05-29T01:40:41;16.50;99.90
20654;DHT22;21083;50.898;4.902;2023-05-29T01:43:08;16.40;99.90
20654;DHT22;21083;50.898;4.902;2023-05-29T01:45:37;16.30;99.90
20654;DHT22;21083;50.898;4.902;2023-05-29T01:48:04;16.40;99.90
20654;DHT22;21083;50.898;4.902;2023-05-29T01:50:31;16.30;99.90
20654;DHT22;21083;50.898;4.902;2023-05-29T01:52:58;16.20;99.90
20654;DHT22;21083;50.898;4.902;2023-05-29T01:55:25;16.10;99.90
20654;DHT22;21083;50.898;4.902;2023-05-29T01:57:52;16.00;99.90
20654;DHT22;21083;50.898;4.902;2023-05-29T02:00:20;16.00;99.90
20654;DHT22;21083;50.898;4.902;2023-05-29T02:02:48;15.80;99.90
20654;DHT22;21083;50.898;4.902;2023-05-29T02:05:16;15.90;99.90
20654;DHT22;21083;50.898;4.902;2023-05-29T02:07:43;15.90;99.90
20654;DHT22;21083;50.898;4.902;2023-05-29T02:10:10;15.70;99.90
20654;DHT22;21083;50.898;4.902;2023-05-29T02:12:37;15.70;99.90
20654;DHT22;21083;50.898;4.902;2023-05-29T02:15:05;15.70;99.90
20654;DHT22;21083;50.898;4.902;2023-05-29T02:17:33;15.70;99.90
20654;DHT22;21083;50.898;4.902;2023-05-29T02:20:01;15.70;99.90
20654;DHT22;21083;50.898;4.902;2023-05-29T02:22:28;15.60;99.90
20654;DHT22;21083;50.898;4.902;2023-05-29T02:24:55;15.50;99.90
20654;DHT22;21083;50.898;4.902;2023-05-29T02:27:22;15.40;99.90
20654;DHT22;21083;50.898;4.902;2023-05-29T02:29:49;15.30;99.90
20654;DHT22;21083;50.898;4.902;2023-05-29T02:32:16;15.30;99.90
20654;DHT22;21083;50.898;4.902;2023-05-29T02:34:43;15.20;99.90
20654;DHT22;21083;50.898;4.902;2023-05-29T02:37:11;15.30;99.90
20654;DHT22;21083;50.898;4.902;2023-05-29T02:39:38;15.20;99.90
20654;DHT22;21083;50.898;4.902;2023-05-29T02:42:05;15.10;99.90
20654;DHT22;21083;50.898;4.902;2023-05-29T02:44:32;15.10;99.90
20654;DHT22;21083;50.898;4.902;2023-05-29T02:46:59;15.10;99.90
20654;DHT22;21083;50.898;4.902;2023-05-29T02:49:26;15.10;99.90
20654;DHT22;21083;50.898;4.902;2023-05-29T02:51:53;15.00;99.90
20654;DHT22;21083;50.898;4.902;2023-05-29T02:54:23;14.90;99.90
20654;DHT22;21083;50.898;4.902;2023-05-29T02:56:51;14.80;99.90
20654;DHT22;21083;50.898;4.902;2023-05-29T02:59:18;14.90;99.90
20654;DHT22;21083;50.898;4.902;2023-05-29T03:01:45;14.80;99.90
20654;DHT22;21083;50.898;4.902;2023-05-29T03:04:13;14.80;99.90
20654;DHT22;21083;50.898;4.902;2023-05-29T03:06:40;14.80;99.90
20654;DHT22;21083;50.898;4.902;2023-05-29T03:09:07;14.80;99.90
20654;DHT22;21083;50.898;4.902;2023-05-29T03:11:35;14.70;99.90
20654;DHT22;21083;50.898;4.902;2023-05-29T03:14:03;14.80;99.90
20654;DHT22;21083;50.898;4.902;2023-05-29T03:16:30;14.80;99.90
20654;DHT22;21083;50.898;4.902;2023-05-29T03:18:57;14.80;99.90
20654;DHT22;21083;50.898;4.902;2023-05-29T03:21:24;14.70;99.90
20654;DHT22;21083;50.898;4.902;2023-05-29T03:23:51;14.60;99.90
20654;DHT22;21083;50.898;4.902;2023-05-29T03:26:18;14.60;99.90
20654;DHT22;21083;50.898;4.902;2023-05-29T03:28:46;14.70;99.90
20654;DHT22;21083;50.898;4.902;2023-05-29T03:31:13;14.50;99.90
20654;DHT22;21083;50.898;4.902;2023-05-29T03:33:41;14.50;99.90
20654;DHT22;21083;50.898;4.902;2023-05-29T03:36:08;14.40;99.90
20654;DHT22;21083;50.898;4.902;2023-05-29T03:38:36;14.30;99.90
20654;DHT22;21083;50.898;4.902;2023-05-29T03:41:03;14.20;99.90
20654;DHT22;21083;50.898;4.902;2023-05-29T03:43:30;14.10;99.90
20654;DHT22;21083;50.898;4.902;2023-05-29T03:45:58;14.10;99.90
20654;DHT22;21083;50.898;4.902;2023-05-29T03:48:25;14.10;99.90
20654;DHT22;21083;50.898;4.902;2023-05-29T03:50:52;14.10;99.90
20654;DHT22;21083;50.898;4.902;2023-05-29T03:53:19;14.10;99.90
20654;DHT22;21083;50.898;4.902;2023-05-29T03:55:46;14.00;99.90
20654;DHT22;21083;50.898;4.902;2023-05-29T03:58:13;14.00;99.90
20654;DHT22;21083;50.898;4.902;2023-05-29T04:00:40;14.00;99.90
20654;DHT22;21083;50.898;4.902;2023-05-29T04:03:08;13.90;99.90
20654;DHT22;21083;50.898;4.902;2023-05-29T04:05:35;13.80;99.90
20654;DHT22;21083;50.898;4.902;2023-05-29T04:08:02;13.70;99.90
20654;DHT22;21083;50.898;4.902;2023-05-29T04:10:30;13.70;99.90
20654;DHT22;21083;50.898;4.902;2023-05-29T04:12:59;13.70;99.90
20654;DHT22;21083;50.898;4.902;2023-05-29T04:15:26;13.80;99.90
20654;DHT22;21083;50.898;4.902;2023-05-29T04:17:53;13.90;99.90
20654;DHT22;21083;50.898;4.902;2023-05-29T04:20:21;13.80;99.90
20654;DHT22;21083;50.898;4.902;2023-05-29T04:22:48;13.80;99.90
20654;DHT22;21083;50.898;4.902;2023-05-29T04:25:15;13.70;99.90
20654;DHT22;21083;50.898;4.902;2023-05-29T04:27:43;13.70;99.90
20654;DHT22;21083;50.898;4.902;2023-05-29T04:30:14;13.70;99.90
20654;DHT22;21083;50.898;4.902;2023-05-29T04:32:41;13.70;99.90
20654;DHT22;21083;50.898;4.902;2023-05-29T04:35:12;13.70;99.90
20654;DHT22;21083;50.898;4.902;2023-05-29T04:37:40;13.50;99.90
20654;DHT22;21083;50.898;4.902;2023-05-29T04:40:10;13.50;99.90
20654;DHT22;21083;50.898;4.902;2023-05-29T04:42:37;13.40;99.90
20654;DHT22;21083;50.898;4.902;2023-05-29T04:45:06;13.50;99.90
20654;DHT22;21083;50.898;4.902;2023-05-29T04:47:36;13.50;99.90
20654;DHT22;21083;50.898;4.902;2023-05-29T04:50:09;13.50;99.90
20654;DHT22;21083;50.898;4.902;2023-05-29T04:52:36;13.50;99.90
20654;DHT22;21083;50.898;4.902;2023-05-29T04:55:06;13.50;99.90
20654;DHT22;21083;50.898;4.902;2023-05-29T04:57:33;13.40;99.90
20654;DHT22;21083;50.898;4.902;2023-05-29T05:00:00;13.30;99.90
20654;DHT22;21083;50.898;4.902;2023-05-29T05:02:27;13.30;99.90
20654;DHT22;21083;50.898;4.902;2023-05-29T05:04:54;13.40;99.90
20654;DHT22;21083;50.898;4.902;2023-05-29T05:07:21;13.40;99.90
20654;DHT22;21083;50.898;4.902;2023-05-29T05:09:48;13.50;99.90
20654;DHT22;21083;50.898;4.902;2023-05-29T05:12:16;13.50;99.90
20654;DHT22;21083;50.898;4.902;2023-05-29T05:14:43;13.50;99.90
20654;DHT22;21083;50.898;4.902;2023-05-29T05:17:11;13.50;99.90
20654;DHT22;21083;50.898;4.902;2023-05-29T05:19:38;13.40;99.90
20654;DHT22;21083;50.898;4.902;2023-05-29T05:22:05;13.50;99.90
20654;DHT22;21083;50.898;4.902;2023-05-29T05:24:32;13.40;99.90
20654;DHT22;21083;50.898;4.902;2023-05-29T05:27:00;13.30;99.90
20654;DHT22;21083;50.898;4.902;2023-05-29T05:29:29;13.20;99.90
20654;DHT22;21083;50.898;4.902;2023-05-29T05:31:56;13.40;99.90
20654;DHT22;21083;50.898;4.902;2023-05-29T05:34:23;13.50;99.90
20654;DHT22;21083;50.898;4.902;2023-05-29T05:36:50;13.50;99.90
20654;DHT22;21083;50.898;4.902;2023-05-29T05:39:17;13.50;99.90
20654;DHT22;21083;50.898;4.902;2023-05-29T05:41:44;13.60;99.90
20654;DHT22;21083;50.898;4.902;2023-05-29T05:44:11;13.60;99.90
20654;DHT22;21083;50.898;4.902;2023-05-29T05:46:40;13.50;99.90
20654;DHT22;21083;50.898;4.902;2023-05-29T05:49:07;13.70;99.90
20654;DHT22;21083;50.898;4.902;2023-05-29T05:51:34;13.70;99.90
20654;DHT22;21083;50.898;4.902;2023-05-29T05:54:01;13.60;99.90
20654;DHT22;21083;50.898;4.902;2023-05-29T05:56:28;13.60;99.90
20654;DHT22;21083;50.898;4.902;2023-05-29T05:58:55;13.60;99.90
20654;DHT22;21083;50.898;4.902;2023-05-29T06:01:22;13.80;99.90
20654;DHT22;21083;50.898;4.902;2023-05-29T06:03:50;13.60;99.90
20654;DHT22;21083;50.898;4.902;2023-05-29T06:06:17;13.70;99.90
20654;DHT22;21083;50.898;4.902;2023-05-29T06:08:44;13.80;99.90
20654;DHT22;21083;50.898;4.902;2023-05-29T06:11:11;13.80;99.90
20654;DHT22;21083;50.898;4.902;2023-05-29T06:13:38;13.90;99.90
20654;DHT22;21083;50.898;4.902;2023-05-29T06:16:05;14.00;99.90
20654;DHT22;21083;50.898;4.902;2023-05-29T06:18:32;14.10;99.90
20654;DHT22;21083;50.898;4.902;2023-05-29T06:21:00;14.10;99.90
20654;DHT22;21083;50.898;4.902;2023-05-29T06:23:28;14.10;99.90
20654;DHT22;21083;50.898;4.902;2023-05-29T06:25:55;14.20;99.90
20654;DHT22;21083;50.898;4.902;2023-05-29T06:28:22;14.20;99.90
20654;DHT22;21083;50.898;4.902;2023-05-29T06:30:49;14.30;99.90
20654;DHT22;21083;50.898;4.902;2023-05-29T06:33:17;14.40;99.90
20654;DHT22;21083;50.898;4.902;2023-05-29T06:35:46;14.40;99.90
20654;DHT22;21083;50.898;4.902;2023-05-29T06:38:14;14.50;99.90
20654;DHT22;21083;50.898;4.902;2023-05-29T06:40:41;14.60;99.90
20654;DHT22;21083;50.898;4.902;2023-05-29T06:43:08;14.70;99.90
20654;DHT22;21083;50.898;4.902;2023-05-29T06:45:36;14.60;99.90
20654;DHT22;21083;50.898;4.902;2023-05-29T06:48:03;14.70;99.90
20654;DHT22;21083;50.898;4.902;2023-05-29T06:50:30;14.90;99.90
20654;DHT22;21083;50.898;4.902;2023-05-29T06:52:56;14.90;99.90
20654;DHT22;21083;50.898;4.902;2023-05-29T06:55:25;15.00;99.90
20654;DHT22;21083;50.898;4.902;2023-05-29T06:57:52;15.10;99.90
20654;DHT22;21083;50.898;4.902;2023-05-29T07:00:19;15.20;99.90
20654;DHT22;21083;50.898;4.902;2023-05-29T07:02:46;15.30;99.90
20654;DHT22;21083;50.898;4.902;2023-05-29T07:05:13;15.40;99.90
20654;DHT22;21083;50.898;4.902;2023-05-29T07:07:40;15.30;99.90
20654;DHT22;21083;50.898;4.902;2023-05-29T07:10:07;15.30;99.90
20654;DHT22;21083;50.898;4.902;2023-05-29T07:12:36;15.60;99.90
20654;DHT22;21083;50.898;4.902;2023-05-29T07:15:03;15.60;99.90
20654;DHT22;21083;50.898;4.902;2023-05-29T07:17:31;15.70;99.90
20654;DHT22;21083;50.898;4.902;2023-05-29T07:19:57;15.70;99.90
20654;DHT22;21083;50.898;4.902;2023-05-29T07:22:24;15.70;99.90
20654;DHT22;21083;50.898;4.902;2023-05-29T07:24:51;15.80;99.90
20654;DHT22;21083;50.898;4.902;2023-05-29T07:27:18;16.00;99.90
20654;DHT22;21083;50.898;4.902;2023-05-29T07:29:46;15.80;99.90
20654;DHT22;21083;50.898;4.902;2023-05-29T07:32:13;15.80;99.90
20654;DHT22;21083;50.898;4.902;2023-05-29T07:34:40;16.00;99.90
20654;DHT22;21083;50.898;4.902;2023-05-29T07:37:07;16.00;99.90
20654;DHT22;21083;50.898;4.902;2023-05-29T07:39:35;16.20;99.90
20654;DHT22;21083;50.898;4.902;2023-05-29T07:42:02;16.30;99.90
20654;DHT22;21083;50.898;4.902;2023-05-29T07:44:31;16.20;99.90
20654;DHT22;21083;50.898;4.902;2023-05-29T07:46:59;16.30;99.90
20654;DHT22;21083;50.898;4.902;2023-05-29T07:49:26;16.30;99.90
20654;DHT22;21083;50.898;4.902;2023-05-29T07:51:53;16.70;99.90
20654;DHT22;21083;50.898;4.902;2023-05-29T07:54:20;16.80;99.90
20654;DHT22;21083;50.898;4.902;2023-05-29T07:56:48;16.70;99.90
20654;DHT22;21083;50.898;4.902;2023-05-29T07:59:15;16.80;99.90
20654;DHT22;21083;50.898;4.902;2023-05-29T08:01:42;16.90;99.90
20654;DHT22;21083;50.898;4.902;2023-05-29T08:04:11;16.90;99.90
20654;DHT22;21083;50.898;4.902;2023-05-29T08:06:39;17.10;99.90
20654;DHT22;21083;50.898;4.902;2023-05-29T08:09:07;17.10;99.90
20654;DHT22;21083;50.898;4.902;2023-05-29T08:11:35;17.20;99.90
20654;DHT22;21083;50.898;4.902;2023-05-29T08:14:02;17.10;99.90
20654;DHT22;21083;50.898;4.902;2023-05-29T08:16:29;17.30;99.90
20654;DHT22;21083;50.898;4.902;2023-05-29T08:18:57;17.30;99.90
20654;DHT22;21083;50.898;4.902;2023-05-29T08:21:25;17.40;99.90
20654;DHT22;21083;50.898;4.902;2023-05-29T08:23:52;17.60;99.90
20654;DHT22;21083;50.898;4.902;2023-05-29T08:26:19;17.60;99.90
20654;DHT22;21083;50.898;4.902;2023-05-29T08:28:46;17.90;99.90
20654;DHT22;21083;50.898;4.902;2023-05-29T08:31:13;18.00;99.90
20654;DHT22;21083;50.898;4.902;2023-05-29T08:33:40;18.10;99.90
20654;DHT22;21083;50.898;4.902;2023-05-29T08:36:08;18.20;99.90
20654;DHT22;21083;50.898;4.902;2023-05-29T08:38:36;18.30;99.90
20654;DHT22;21083;50.898;4.902;2023-05-29T08:41:04;18.30;99.90
20654;DHT22;21083;50.898;4.902;2023-05-29T08:43:34;18.40;99.90
20654;DHT22;21083;50.898;4.902;2023-05-29T08:46:02;18.50;99.90
20654;DHT22;21083;50.898;4.902;2023-05-29T08:48:30;18.60;99.90
20654;DHT22;21083;50.898;4.902;2023-05-29T08:51:02;18.80;99.90
20654;DHT22;21083;50.898;4.902;2023-05-29T08:53:29;18.90;99.90
20654;DHT22;21083;50.898;4.902;2023-05-29T08:55:58;19.00;99.90
20654;DHT22;21083;50.898;4.902;2023-05-29T08:58:26;19.20;99.90
20654;DHT22;21083;50.898;4.902;2023-05-29T09:00:53;19.20;99.90
20654;DHT22;21083;50.898;4.902;2023-05-29T09:03:20;19.20;99.90
20654;DHT22;21083;50.898;4.902;2023-05-29T09:05:48;19.20;99.90
20654;DHT22;21083;50.898;4.902;2023-05-29T09:08:15;19.30;99.90
20654;DHT22;21083;50.898;4.902;2023-05-29T09:10:43;19.20;99.90
20654;DHT22;21083;50.898;4.902;2023-05-29T09:13:13;19.40;99.90
20654;DHT22;21083;50.898;4.902;2023-05-29T09:15:41;19.60;99.90
20654;DHT22;21083;50.898;4.902;2023-05-29T09:18:08;19.60;99.90
20654;DHT22;21083;50.898;4.902;2023-05-29T09:20:36;19.70;99.90
20654;DHT22;21083;50.898;4.902;2023-05-29T09:23:04;19.90;99.90
20654;DHT22;21083;50.898;4.902;2023-05-29T09:25:32;20.00;99.90
20654;DHT22;21083;50.898;4.902;2023-05-29T09:28:02;20.00;99.90
20654;DHT22;21083;50.898;4.902;2023-05-29T09:30:35;20.10;99.90
20654;DHT22;21083;50.898;4.902;2023-05-29T09:33:03;20.30;99.90
20654;DHT22;21083;50.898;4.902;2023-05-29T09:35:35;20.20;99.90
20654;DHT22;21083;50.898;4.902;2023-05-29T09:38:03;20.40;99.90
20654;DHT22;21083;50.898;4.902;2023-05-29T09:40:31;20.40;99.90
20654;DHT22;21083;50.898;4.902;2023-05-29T09:43:05;20.50;99.90
20654;DHT22;21083;50.898;4.902;2023-05-29T09:45:38;20.60;99.90
20654;DHT22;21083;50.898;4.902;2023-05-29T09:48:06;20.70;99.90
20654;DHT22;21083;50.898;4.902;2023-05-29T09:50:34;20.80;99.90
20654;DHT22;21083;50.898;4.902;2023-05-29T09:53:01;20.80;99.90
20654;DHT22;21083;50.898;4.902;2023-05-29T09:55:31;20.90;99.90
20654;DHT22;21083;50.898;4.902;2023-05-29T09:57:59;21.00;99.90
20654;DHT22;21083;50.898;4.902;2023-05-29T10:00:28;21.10;99.90
20654;DHT22;21083;50.898;4.902;2023-05-29T10:02:58;21.30;99.90
20654;DHT22;21083;50.898;4.902;2023-05-29T10:05:25;21.40;99.90
20654;DHT22;21083;50.898;4.902;2023-05-29T10:07:55;21.50;99.90
20654;DHT22;21083;50.898;4.902;2023-05-29T10:10:23;21.70;99.90
20654;DHT22;21083;50.898;4.902;2023-05-29T10:12:53;21.80;99.90
20654;DHT22;21083;50.898;4.902;2023-05-29T10:15:23;21.70;99.90
20654;DHT22;21083;50.898;4.902;2023-05-29T10:18:02;21.90;99.90
20654;DHT22;21083;50.898;4.902;2023-05-29T10:20:31;21.90;99.90
20654;DHT22;21083;50.898;4.902;2023-05-29T10:23:00;22.00;99.90
20654;DHT22;21083;50.898;4.902;2023-05-29T10:25:31;22.00;99.90
20654;DHT22;21083;50.898;4.902;2023-05-29T10:27:59;22.10;99.90
20654;DHT22;21083;50.898;4.902;2023-05-29T10:30:31;22.20;99.90
20654;DHT22;21083;50.898;4.902;2023-05-29T10:33:30;22.20;99.90
20654;DHT22;21083;50.898;4.902;2023-05-29T10:36:04;22.30;99.90
20654;DHT22;21083;50.898;4.902;2023-05-29T10:38:33;22.30;99.90
20654;DHT22;21083;50.898;4.902;2023-05-29T10:41:28;22.40;99.90
20654;DHT22;21083;50.898;4.902;2023-05-29T10:43:56;22.60;99.90
20654;DHT22;21083;50.898;4.902;2023-05-29T10:47:07;22.70;99.90
20654;DHT22;21083;50.898;4.902;2023-05-29T10:49:37;22.90;99.90
20654;DHT22;21083;50.898;4.902;2023-05-29T10:52:05;23.00;99.90
20654;DHT22;21083;50.898;4.902;2023-05-29T10:54:51;23.10;99.90
20654;DHT22;21083;50.898;4.902;2023-05-29T10:57:21;23.10;99.90
20654;DHT22;21083;50.898;4.902;2023-05-29T11:00:04;23.20;99.90
20654;DHT22;21083;50.898;4.902;2023-05-29T11:02:39;23.30;99.90
20654;DHT22;21083;50.898;4.902;2023-05-29T11:05:22;23.40;99.90
20654;DHT22;21083;50.898;4.902;2023-05-29T11:07:55;23.50;99.90
20654;DHT22;21083;50.898;4.902;2023-05-29T11:10:44;23.70;99.90
20654;DHT22;21083;50.898;4.902;2023-05-29T11:13:23;23.60;99.90
20654;DHT22;21083;50.898;4.902;2023-05-29T11:16:14;23.70;99.90
20654;DHT22;21083;50.898;4.902;2023-05-29T11:18:47;23.70;99.90
20654;DHT22;21083;50.898;4.902;2023-05-29T11:21:30;23.90;99.90
20654;DHT22;21083;50.898;4.902;2023-05-29T11:23:59;24.00;99.90
20654;DHT22;21083;50.898;4.902;2023-05-29T11:26:29;24.00;99.90
20654;DHT22;21083;50.898;4.902;2023-05-29T11:29:00;24.10;99.90
20654;DHT22;21083;50.898;4.902;2023-05-29T11:31:28;24.10;99.90
20654;DHT22;21083;50.898;4.902;2023-05-29T11:34:01;24.20;99.90
20654;DHT22;21083;50.898;4.902;2023-05-29T11:36:32;24.50;99.90
20654;DHT22;21083;50.898;4.902;2023-05-29T11:39:01;24.60;99.90
20654;DHT22;21083;50.898;4.902;2023-05-29T11:41:29;24.50;99.90
20654;DHT22;21083;50.898;4.902;2023-05-29T11:43:57;24.40;99.90
20654;DHT22;21083;50.898;4.902;2023-05-29T11:46:25;24.30;99.90
20654;DHT22;21083;50.898;4.902;2023-05-29T11:48:53;24.60;99.90
20654;DHT22;21083;50.898;4.902;2023-05-29T11:51:22;24.70;99.90
20654;DHT22;21083;50.898;4.902;2023-05-29T11:53:49;24.80;99.90
20654;DHT22;21083;50.898;4.902;2023-05-29T11:56:19;24.80;99.90
20654;DHT22;21083;50.898;4.902;2023-05-29T11:58:49;24.70;99.90
20654;DHT22;21083;50.898;4.902;2023-05-29T12:01:17;24.80;99.90
20654;DHT22;21083;50.898;4.902;2023-05-29T12:03:45;24.80;99.90
20654;DHT22;21083;50.898;4.902;2023-05-29T12:06:12;24.80;99.90
20654;DHT22;21083;50.898;4.902;2023-05-29T12:08:40;24.90;99.90
20654;DHT22;21083;50.898;4.902;2023-05-29T12:11:08;24.90;99.90
20654;DHT22;21083;50.898;4.902;2023-05-29T12:13:35;25.00;99.90
20654;DHT22;21083;50.898;4.902;2023-05-29T12:16:04;25.20;99.90
20654;DHT22;21083;50.898;4.902;2023-05-29T12:18:32;25.30;99.90
20654;DHT22;21083;50.898;4.902;2023-05-29T12:21:00;25.40;99.90
20654;DHT22;21083;50.898;4.902;2023-05-29T12:23:28;25.20;99.90
20654;DHT22;21083;50.898;4.902;2023-05-29T12:25:57;25.30;99.90
20654;DHT22;21083;50.898;4.902;2023-05-29T12:28:25;25.40;99.90
20654;DHT22;21083;50.898;4.902;2023-05-29T12:30:58;25.40;99.90
20654;DHT22;21083;50.898;4.902;2023-05-29T12:33:27;25.60;99.90
20654;DHT22;21083;50.898;4.902;2023-05-29T12:35:54;25.70;99.90
20654;DHT22;21083;50.898;4.902;2023-05-29T12:38:28;25.80;99.90
20654;DHT22;21083;50.898;4.902;2023-05-29T12:40:59;25.90;99.90
20654;DHT22;21083;50.898;4.902;2023-05-29T12:43:26;26.10;99.90
20654;DHT22;21083;50.898;4.902;2023-05-29T12:45:56;26.20;99.90
20654;DHT22;21083;50.898;4.902;2023-05-29T12:48:26;26.20;99.90
20654;DHT22;21083;50.898;4.902;2023-05-29T12:50:54;26.30;99.90
20654;DHT22;21083;50.898;4.902;2023-05-29T12:53:21;26.40;99.90
20654;DHT22;21083;50.898;4.902;2023-05-29T12:55:48;26.40;99.90
20654;DHT22;21083;50.898;4.902;2023-05-29T12:58:19;26.50;99.90
20654;DHT22;21083;50.898;4.902;2023-05-29T13:00:46;26.30;99.90
20654;DHT22;21083;50.898;4.902;2023-05-29T13:03:13;26.30;99.90
20654;DHT22;21083;50.898;4.902;2023-05-29T13:05:41;26.00;99.90
20654;DHT22;21083;50.898;4.902;2023-05-29T13:08:10;25.90;99.90
20654;DHT22;21083;50.898;4.902;2023-05-29T13:10:37;25.80;99.90
20654;DHT22;21083;50.898;4.902;2023-05-29T13:13:04;26.00;99.90
20654;DHT22;21083;50.898;4.902;2023-05-29T13:15:32;26.10;99.90
20654;DHT22;21083;50.898;4.902;2023-05-29T13:18:00;26.10;99.90
20654;DHT22;21083;50.898;4.902;2023-05-29T13:20:28;26.20;99.90
20654;DHT22;21083;50.898;4.902;2023-05-29T13:22:57;26.40;99.90
20654;DHT22;21083;50.898;4.902;2023-05-29T13:25:24;26.50;99.90
20654;DHT22;21083;50.898;4.902;2023-05-29T13:27:52;26.40;99.90
20654;DHT22;21083;50.898;4.902;2023-05-29T13:30:18;26.30;99.90
20654;DHT22;21083;50.898;4.902;2023-05-29T13:32:47;26.40;99.90
20654;DHT22;21083;50.898;4.902;2023-05-29T13:35:14;26.30;99.90
20654;DHT22;21083;50.898;4.902;2023-05-29T13:37:41;26.20;99.90
20654;DHT22;21083;50.898;4.902;2023-05-29T13:40:09;26.30;99.90
20654;DHT22;21083;50.898;4.902;2023-05-29T13:42:37;26.40;99.90
20654;DHT22;21083;50.898;4.902;2023-05-29T13:45:04;26.40;99.90
20654;DHT22;21083;50.898;4.902;2023-05-29T13:47:33;26.60;99.90
20654;DHT22;21083;50.898;4.902;2023-05-29T13:50:01;26.70;99.90
20654;DHT22;21083;50.898;4.902;2023-05-29T13:52:28;26.70;99.90
20654;DHT22;21083;50.898;4.902;2023-05-29T13:54:55;26.90;99.90
20654;DHT22;21083;50.898;4.902;2023-05-29T13:57:23;26.80;99.90
20654;DHT22;21083;50.898;4.902;2023-05-29T13:59:50;26.90;99.90
20654;DHT22;21083;50.898;4.902;2023-05-29T14:02:17;26.90;99.90
20654;DHT22;21083;50.898;4.902;2023-05-29T14:04:44;26.90;99.90
20654;DHT22;21083;50.898;4.902;2023-05-29T14:07:12;27.10;99.90
20654;DHT22;21083;50.898;4.902;2023-05-29T14:09:42;27.10;99.90
20654;DHT22;21083;50.898;4.902;2023-05-29T14:12:09;27.20;99.90
20654;DHT22;21083;50.898;4.902;2023-05-29T14:14:35;27.20;99.90
20654;DHT22;21083;50.898;4.902;2023-05-29T14:17:03;27.40;99.90
20654;DHT22;21083;50.898;4.902;2023-05-29T14:19:30;27.30;99.90
20654;DHT22;21083;50.898;4.902;2023-05-29T14:21:57;27.30;99.90
20654;DHT22;21083;50.898;4.902;2023-05-29T14:24:26;27.40;99.90
20654;DHT22;21083;50.898;4.902;2023-05-29T14:26:53;27.40;99.90
20654;DHT22;21083;50.898;4.902;2023-05-29T14:29:20;27.50;99.90
20654;DHT22;21083;50.898;4.902;2023-05-29T14:31:47;27.40;99.90
20654;DHT22;21083;50.898;4.902;2023-05-29T14:34:14;27.30;99.90
20654;DHT22;21083;50.898;4.902;2023-05-29T14:36:41;27.20;99.90
20654;DHT22;21083;50.898;4.902;2023-05-29T14:39:10;27.20;99.90
20654;DHT22;21083;50.898;4.902;2023-05-29T14:41:38;27.30;99.90
20654;DHT22;21083;50.898;4.902;2023-05-29T14:44:05;27.30;99.90
20654;DHT22;21083;50.898;4.902;2023-05-29T14:46:32;27.10;99.90
20654;DHT22;21083;50.898;4.902;2023-05-29T14:48:59;27.00;99.90
20654;DHT22;21083;50.898;4.902;2023-05-29T14:51:27;26.70;99.90
20654;DHT22;21083;50.898;4.902;2023-05-29T14:53:54;26.90;99.90
20654;DHT22;21083;50.898;4.902;2023-05-29T14:56:26;26.90;99.90
20654;DHT22;21083;50.898;4.902;2023-05-29T14:58:55;26.80;99.90
20654;DHT22;21083;50.898;4.902;2023-05-29T15:01:22;26.70;99.90
20654;DHT22;21083;50.898;4.902;2023-05-29T15:03:49;26.70;99.90
20654;DHT22;21083;50.898;4.902;2023-05-29T15:06:16;26.70;99.90
20654;DHT22;21083;50.898;4.902;2023-05-29T15:08:44;26.50;99.90
20654;DHT22;21083;50.898;4.902;2023-05-29T15:11:11;26.30;99.90
20654;DHT22;21083;50.898;4.902;2023-05-29T15:13:40;26.10;99.90
20654;DHT22;21083;50.898;4.902;2023-05-29T15:16:09;26.10;99.90
20654;DHT22;21083;50.898;4.902;2023-05-29T15:18:39;26.10;99.90
20654;DHT22;21083;50.898;4.902;2023-05-29T15:21:06;26.10;99.90
20654;DHT22;21083;50.898;4.902;2023-05-29T15:23:33;26.10;99.90
20654;DHT22;21083;50.898;4.902;2023-05-29T15:26:01;25.90;99.90
20654;DHT22;21083;50.898;4.902;2023-05-29T15:28:29;25.90;99.90
20654;DHT22;21083;50.898;4.902;2023-05-29T15:30:57;25.80;99.90
20654;DHT22;21083;50.898;4.902;2023-05-29T15:33:25;25.60;99.90
20654;DHT22;21083;50.898;4.902;2023-05-29T15:35:52;25.50;99.90
20654;DHT22;21083;50.898;4.902;2023-05-29T15:38:19;25.40;99.90